Portada
METAR-TAF:

METAR-TAF

Aeroports :

Gladstone, Austràlia

latitud: 23-52-11S, longitud: 151-13-22E, altitud: 18 m

Observació

L'informe es va fer fa 43 minuts, a les 23:30 UTC
Vent 8 kt del Nord/Nord-Oest
Temperatura 25°C
Humitat 65%
Pressió 1015 hPa
Visibilitat 10 km o més
Cel cobert a una alçada de 3300 ft

METAR: YGLA 242330Z AUTO 34008KT 9999 // OVC033 25/18 Q1015 RF00.0/000.0

Hora: 10:13 (00:13 UTC)

Pronòstic

L'informe es va fer fa 1 hora i 17 minuts, a les 22:56 UTC
Pronòstic vàlid del 25 a les 00 UTC al 25 a les 12 UTC
Vent 14 kt del Nord
Visibilitat 10 km o més
Escasses núvols a una alçada de 4500 ft
A partir de les 25 a les 0900 UTC
Vent 10 kt del Nord/Nord-Oest
Visibilitat 10 km o més
Núvols disperses a una alçada de 2000 ft

TAF: YGLA 242256Z 2500/2512 01014KT 9999 FEW045 FM250900 34010KT 9999 SCT020

Observacions i pronòstics meteorològics de més de 4000 aeroports (METAR i TAF).

Les estacions disponibles són els punts grocs i vermells al mapa.

Posi el ratolí al punt desitjat per veure el nom de l'estació.

Feu clic per veure les observacions i els pronòstics meteorològics.

Per canviar el mapa: feu clic els botons verds amb una creu de color negre per apropar; al botó verd amb un guió per allunyar la imatge; o en les fletxes verdes per a mapes adjacents.


METAR-TAF: